sensor_id;sensor_type;location;lat;lon;timestamp;P1;durP1;ratioP1;P2;durP2;ratioP2
58621;SDS011;44389;51.578;5.456;2022-12-08T00:01:12;159.27;;;88.43;;
58621;SDS011;44389;51.578;5.456;2022-12-08T00:03:39;153.00;;;89.40;;
58621;SDS011;44389;51.578;5.456;2022-12-08T00:06:06;152.32;;;88.80;;
58621;SDS011;44389;51.578;5.456;2022-12-08T00:08:55;158.15;;;87.13;;
58621;SDS011;44389;51.578;5.456;2022-12-08T00:11:39;146.55;;;85.10;;
58621;SDS011;44389;51.578;5.456;2022-12-08T00:14:04;145.82;;;86.22;;
58621;SDS011;44389;51.578;5.456;2022-12-08T00:16:29;146.32;;;84.57;;
58621;SDS011;44389;51.578;5.456;2022-12-08T00:18:55;139.02;;;83.15;;
58621;SDS011;44389;51.578;5.456;2022-12-08T00:21:20;151.45;;;83.70;;
58621;SDS011;44389;51.578;5.456;2022-12-08T00:23:45;144.65;;;80.53;;
58621;SDS011;44389;51.578;5.456;2022-12-08T00:26:10;145.45;;;80.15;;
58621;SDS011;44389;51.578;5.456;2022-12-08T00:28:36;149.93;;;83.47;;
58621;SDS011;44389;51.578;5.456;2022-12-08T00:31:08;139.57;;;80.50;;
58621;SDS011;44389;51.578;5.456;2022-12-08T00:33:34;156.80;;;87.13;;
58621;SDS011;44389;51.578;5.456;2022-12-08T00:36:06;130.20;;;76.05;;
58621;SDS011;44389;51.578;5.456;2022-12-08T00:38:33;134.73;;;79.57;;
58621;SDS011;44389;51.578;5.456;2022-12-08T00:40:58;131.60;;;75.90;;
58621;SDS011;44389;51.578;5.456;2022-12-08T00:43:23;133.75;;;75.45;;
58621;SDS011;44389;51.578;5.456;2022-12-08T00:45:49;132.90;;;71.38;;
58621;SDS011;44389;51.578;5.456;2022-12-08T00:48:14;123.97;;;70.63;;
58621;SDS011;44389;51.578;5.456;2022-12-08T00:50:39;137.10;;;72.35;;
58621;SDS011;44389;51.578;5.456;2022-12-08T00:53:04;126.57;;;73.35;;
58621;SDS011;44389;51.578;5.456;2022-12-08T00:55:30;121.03;;;72.07;;
58621;SDS011;44389;51.578;5.456;2022-12-08T00:57:55;127.75;;;70.53;;
58621;SDS011;44389;51.578;5.456;2022-12-08T01:00:20;121.93;;;68.80;;
58621;SDS011;44389;51.578;5.456;2022-12-08T01:02:46;132.50;;;71.65;;
58621;SDS011;44389;51.578;5.456;2022-12-08T01:05:11;122.28;;;68.85;;
58621;SDS011;44389;51.578;5.456;2022-12-08T01:07:36;124.95;;;71.13;;
58621;SDS011;44389;51.578;5.456;2022-12-08T01:10:01;118.72;;;69.30;;
58621;SDS011;44389;51.578;5.456;2022-12-08T01:12:28;121.53;;;69.72;;
58621;SDS011;44389;51.578;5.456;2022-12-08T01:14:54;123.72;;;70.28;;
58621;SDS011;44389;51.578;5.456;2022-12-08T01:17:19;133.25;;;71.25;;
58621;SDS011;44389;51.578;5.456;2022-12-08T01:19:45;120.90;;;68.95;;
58621;SDS011;44389;51.578;5.456;2022-12-08T01:22:10;124.53;;;68.03;;
58621;SDS011;44389;51.578;5.456;2022-12-08T01:24:35;120.47;;;69.00;;
58621;SDS011;44389;51.578;5.456;2022-12-08T01:27:00;124.70;;;70.38;;
58621;SDS011;44389;51.578;5.456;2022-12-08T01:29:26;126.63;;;68.18;;
58621;SDS011;44389;51.578;5.456;2022-12-08T01:31:51;117.63;;;65.90;;
58621;SDS011;44389;51.578;5.456;2022-12-08T01:34:17;115.68;;;66.70;;
58621;SDS011;44389;51.578;5.456;2022-12-08T01:36:42;122.32;;;67.03;;
58621;SDS011;44389;51.578;5.456;2022-12-08T01:39:12;115.05;;;65.35;;
58621;SDS011;44389;51.578;5.456;2022-12-08T01:41:40;117.13;;;63.65;;
58621;SDS011;44389;51.578;5.456;2022-12-08T01:46:33;110.30;;;61.80;;
58621;SDS011;44389;51.578;5.456;2022-12-08T01:51:25;104.00;;;58.22;;
58621;SDS011;44389;51.578;5.456;2022-12-08T01:53:51;106.93;;;59.97;;
58621;SDS011;44389;51.578;5.456;2022-12-08T01:56:24;103.85;;;59.40;;
58621;SDS011;44389;51.578;5.456;2022-12-08T01:58:54;102.35;;;57.47;;
58621;SDS011;44389;51.578;5.456;2022-12-08T02:01:20;112.57;;;59.78;;
58621;SDS011;44389;51.578;5.456;2022-12-08T02:03:54;108.03;;;59.00;;
58621;SDS011;44389;51.578;5.456;2022-12-08T02:06:22;111.50;;;58.10;;
58621;SDS011;44389;51.578;5.456;2022-12-08T02:08:48;109.30;;;58.67;;
58621;SDS011;44389;51.578;5.456;2022-12-08T02:11:14;111.32;;;60.17;;
58621;SDS011;44389;51.578;5.456;2022-12-08T02:13:40;100.60;;;57.85;;
58621;SDS011;44389;51.578;5.456;2022-12-08T02:24:53;96.47;;;55.75;;
58621;SDS011;44389;51.578;5.456;2022-12-08T02:27:39;96.85;;;52.33;;
58621;SDS011;44389;51.578;5.456;2022-12-08T02:35:43;91.40;;;49.83;;
58621;SDS011;44389;51.578;5.456;2022-12-08T02:38:32;101.35;;;49.70;;
58621;SDS011;44389;51.578;5.456;2022-12-08T02:44:23;79.38;;;43.80;;
58621;SDS011;44389;51.578;5.456;2022-12-08T02:46:58;77.13;;;43.05;;
58621;SDS011;44389;51.578;5.456;2022-12-08T02:49:29;86.40;;;44.42;;
58621;SDS011;44389;51.578;5.456;2022-12-08T02:52:06;73.32;;;37.40;;
58621;SDS011;44389;51.578;5.456;2022-12-08T02:54:42;65.28;;;35.63;;
58621;SDS011;44389;51.578;5.456;2022-12-08T03:00:20;61.22;;;32.97;;
58621;SDS011;44389;51.578;5.456;2022-12-08T03:05:32;58.80;;;31.45;;
58621;SDS011;44389;51.578;5.456;2022-12-08T03:10:55;53.00;;;29.92;;
58621;SDS011;44389;51.578;5.456;2022-12-08T03:13:28;59.65;;;29.88;;
58621;SDS011;44389;51.578;5.456;2022-12-08T03:15:58;59.75;;;29.85;;
58621;SDS011;44389;51.578;5.456;2022-12-08T03:18:27;57.50;;;29.38;;
58621;SDS011;44389;51.578;5.456;2022-12-08T03:20:57;54.33;;;29.17;;
58621;SDS011;44389;51.578;5.456;2022-12-08T03:23:24;54.70;;;30.02;;
58621;SDS011;44389;51.578;5.456;2022-12-08T03:25:53;61.28;;;31.20;;
58621;SDS011;44389;51.578;5.456;2022-12-08T03:28:24;54.30;;;30.00;;
58621;SDS011;44389;51.578;5.456;2022-12-08T03:30:50;60.70;;;32.50;;
58621;SDS011;44389;51.578;5.456;2022-12-08T03:33:22;59.67;;;31.88;;
58621;SDS011;44389;51.578;5.456;2022-12-08T03:35:50;63.05;;;32.45;;
58621;SDS011;44389;51.578;5.456;2022-12-08T03:38:17;61.65;;;34.00;;
58621;SDS011;44389;51.578;5.456;2022-12-08T03:40:43;60.85;;;33.17;;
58621;SDS011;44389;51.578;5.456;2022-12-08T03:43:28;62.33;;;34.15;;
58621;SDS011;44389;51.578;5.456;2022-12-08T03:45:54;67.10;;;34.83;;
58621;SDS011;44389;51.578;5.456;2022-12-08T03:48:19;66.22;;;34.45;;
58621;SDS011;44389;51.578;5.456;2022-12-08T03:50:44;69.90;;;35.20;;
58621;SDS011;44389;51.578;5.456;2022-12-08T03:53:09;73.28;;;38.33;;
58621;SDS011;44389;51.578;5.456;2022-12-08T03:55:35;79.18;;;42.03;;
58621;SDS011;44389;51.578;5.456;2022-12-08T03:58:00;77.00;;;41.88;;
58621;SDS011;44389;51.578;5.456;2022-12-08T04:00:26;95.53;;;44.45;;
58621;SDS011;44389;51.578;5.456;2022-12-08T04:02:51;96.60;;;48.30;;
58621;SDS011;44389;51.578;5.456;2022-12-08T04:05:17;109.25;;;53.47;;
58621;SDS011;44389;51.578;5.456;2022-12-08T04:07:42;110.07;;;53.28;;
58621;SDS011;44389;51.578;5.456;2022-12-08T04:10:07;125.40;;;58.38;;
58621;SDS011;44389;51.578;5.456;2022-12-08T04:12:33;123.10;;;59.00;;
58621;SDS011;44389;51.578;5.456;2022-12-08T04:14:58;136.32;;;63.65;;
58621;SDS011;44389;51.578;5.456;2022-12-08T04:17:23;138.15;;;65.65;;
58621;SDS011;44389;51.578;5.456;2022-12-08T04:19:49;148.45;;;68.22;;
58621;SDS011;44389;51.578;5.456;2022-12-08T04:22:14;153.45;;;72.25;;
58621;SDS011;44389;51.578;5.456;2022-12-08T04:24:39;157.18;;;72.82;;
58621;SDS011;44389;51.578;5.456;2022-12-08T04:27:04;164.20;;;72.55;;
58621;SDS011;44389;51.578;5.456;2022-12-08T04:29:30;159.75;;;74.50;;
58621;SDS011;44389;51.578;5.456;2022-12-08T04:31:55;159.00;;;73.28;;
58621;SDS011;44389;51.578;5.456;2022-12-08T04:34:20;163.13;;;72.35;;
58621;SDS011;44389;51.578;5.456;2022-12-08T04:36:46;152.00;;;70.35;;
58621;SDS011;44389;51.578;5.456;2022-12-08T04:39:11;157.27;;;70.63;;
58621;SDS011;44389;51.578;5.456;2022-12-08T04:41:36;152.93;;;70.20;;
58621;SDS011;44389;51.578;5.456;2022-12-08T04:44:01;146.68;;;67.75;;
58621;SDS011;44389;51.578;5.456;2022-12-08T04:46:27;150.20;;;66.20;;
58621;SDS011;44389;51.578;5.456;2022-12-08T04:48:52;133.50;;;60.67;;
58621;SDS011;44389;51.578;5.456;2022-12-08T04:51:18;135.40;;;58.53;;
58621;SDS011;44389;51.578;5.456;2022-12-08T04:53:44;122.35;;;56.40;;
58621;SDS011;44389;51.578;5.456;2022-12-08T04:56:11;123.00;;;54.30;;
58621;SDS011;44389;51.578;5.456;2022-12-08T04:58:37;112.82;;;53.33;;
58621;SDS011;44389;51.578;5.456;2022-12-08T05:01:02;114.68;;;50.20;;
58621;SDS011;44389;51.578;5.456;2022-12-08T05:03:28;100.93;;;50.88;;
58621;SDS011;44389;51.578;5.456;2022-12-08T05:05:53;104.88;;;50.80;;
58621;SDS011;44389;51.578;5.456;2022-12-08T05:08:18;115.53;;;53.45;;
58621;SDS011;44389;51.578;5.456;2022-12-08T05:10:43;104.40;;;50.65;;
58621;SDS011;44389;51.578;5.456;2022-12-08T05:13:09;100.50;;;47.55;;
58621;SDS011;44389;51.578;5.456;2022-12-08T05:15:34;102.63;;;46.95;;
58621;SDS011;44389;51.578;5.456;2022-12-08T05:17:59;105.03;;;47.97;;
58621;SDS011;44389;51.578;5.456;2022-12-08T05:20:25;100.45;;;43.70;;
58621;SDS011;44389;51.578;5.456;2022-12-08T05:22:50;68.22;;;34.97;;
58621;SDS011;44389;51.578;5.456;2022-12-08T05:25:15;61.85;;;31.98;;
58621;SDS011;44389;51.578;5.456;2022-12-08T05:27:41;57.63;;;30.77;;
58621;SDS011;44389;51.578;5.456;2022-12-08T05:30:07;53.33;;;25.23;;
58621;SDS011;44389;51.578;5.456;2022-12-08T05:32:32;45.55;;;23.70;;
58621;SDS011;44389;51.578;5.456;2022-12-08T05:34:57;30.10;;;17.50;;
58621;SDS011;44389;51.578;5.456;2022-12-08T05:37:23;27.85;;;15.95;;
58621;SDS011;44389;51.578;5.456;2022-12-08T05:39:48;31.60;;;15.48;;
58621;SDS011;44389;51.578;5.456;2022-12-08T05:42:13;27.23;;;16.48;;
58621;SDS011;44389;51.578;5.456;2022-12-08T05:44:38;33.28;;;17.80;;
58621;SDS011;44389;51.578;5.456;2022-12-08T05:47:04;35.22;;;17.80;;
58621;SDS011;44389;51.578;5.456;2022-12-08T05:49:29;30.75;;;16.98;;
58621;SDS011;44389;51.578;5.456;2022-12-08T05:51:54;29.33;;;17.33;;
58621;SDS011;44389;51.578;5.456;2022-12-08T05:54:20;27.90;;;17.15;;
58621;SDS011;44389;51.578;5.456;2022-12-08T05:56:45;37.25;;;18.17;;
58621;SDS011;44389;51.578;5.456;2022-12-08T05:59:10;30.20;;;18.75;;
58621;SDS011;44389;51.578;5.456;2022-12-08T06:01:35;36.10;;;19.85;;
58621;SDS011;44389;51.578;5.456;2022-12-08T06:04:01;38.33;;;19.00;;
58621;SDS011;44389;51.578;5.456;2022-12-08T06:06:27;38.22;;;19.38;;
58621;SDS011;44389;51.578;5.456;2022-12-08T06:08:53;36.63;;;19.08;;
58621;SDS011;44389;51.578;5.456;2022-12-08T06:11:22;34.67;;;18.02;;
58621;SDS011;44389;51.578;5.456;2022-12-08T06:13:52;32.35;;;16.92;;
58621;SDS011;44389;51.578;5.456;2022-12-08T06:16:18;25.75;;;15.25;;
58621;SDS011;44389;51.578;5.456;2022-12-08T06:18:43;26.30;;;14.77;;
58621;SDS011;44389;51.578;5.456;2022-12-08T06:21:10;28.88;;;15.18;;
58621;SDS011;44389;51.578;5.456;2022-12-08T06:23:38;23.17;;;13.88;;
58621;SDS011;44389;51.578;5.456;2022-12-08T06:26:04;26.63;;;14.68;;
58621;SDS011;44389;51.578;5.456;2022-12-08T06:28:32;30.33;;;16.23;;
58621;SDS011;44389;51.578;5.456;2022-12-08T06:30:59;35.75;;;16.92;;
58621;SDS011;44389;51.578;5.456;2022-12-08T06:33:30;41.13;;;19.45;;
58621;SDS011;44389;51.578;5.456;2022-12-08T06:35:55;43.97;;;19.55;;
58621;SDS011;44389;51.578;5.456;2022-12-08T06:38:23;28.30;;;14.73;;
58621;SDS011;44389;51.578;5.456;2022-12-08T06:40:54;29.33;;;15.10;;
58621;SDS011;44389;51.578;5.456;2022-12-08T06:43:20;33.60;;;15.20;;
58621;SDS011;44389;51.578;5.456;2022-12-08T06:45:45;29.08;;;14.93;;
58621;SDS011;44389;51.578;5.456;2022-12-08T06:48:11;34.28;;;15.48;;
58621;SDS011;44389;51.578;5.456;2022-12-08T06:50:36;30.90;;;14.77;;
58621;SDS011;44389;51.578;5.456;2022-12-08T06:53:02;28.17;;;14.70;;
58621;SDS011;44389;51.578;5.456;2022-12-08T06:55:27;32.25;;;15.68;;
58621;SDS011;44389;51.578;5.456;2022-12-08T06:57:53;33.75;;;16.58;;
58621;SDS011;44389;51.578;5.456;2022-12-08T07:00:18;31.45;;;15.85;;
58621;SDS011;44389;51.578;5.456;2022-12-08T07:02:43;34.20;;;16.90;;
58621;SDS011;44389;51.578;5.456;2022-12-08T07:05:09;32.30;;;17.35;;
58621;SDS011;44389;51.578;5.456;2022-12-08T07:07:34;29.05;;;17.63;;
58621;SDS011;44389;51.578;5.456;2022-12-08T07:09:59;34.22;;;19.05;;
58621;SDS011;44389;51.578;5.456;2022-12-08T07:12:24;37.13;;;19.25;;
58621;SDS011;44389;51.578;5.456;2022-12-08T07:14:50;32.50;;;18.23;;
58621;SDS011;44389;51.578;5.456;2022-12-08T07:17:15;42.05;;;19.80;;
58621;SDS011;44389;51.578;5.456;2022-12-08T07:19:40;40.40;;;19.63;;
58621;SDS011;44389;51.578;5.456;2022-12-08T07:22:05;32.90;;;19.48;;
58621;SDS011;44389;51.578;5.456;2022-12-08T07:24:31;31.85;;;19.35;;
58621;SDS011;44389;51.578;5.456;2022-12-08T07:26:57;33.55;;;19.73;;
58621;SDS011;44389;51.578;5.456;2022-12-08T07:29:22;33.78;;;19.25;;
58621;SDS011;44389;51.578;5.456;2022-12-08T07:31:47;31.65;;;19.13;;
58621;SDS011;44389;51.578;5.456;2022-12-08T07:34:13;37.70;;;20.33;;
58621;SDS011;44389;51.578;5.456;2022-12-08T07:36:38;39.80;;;21.17;;
58621;SDS011;44389;51.578;5.456;2022-12-08T07:39:04;41.83;;;21.27;;
58621;SDS011;44389;51.578;5.456;2022-12-08T07:41:29;36.40;;;22.45;;
58621;SDS011;44389;51.578;5.456;2022-12-08T07:43:55;44.08;;;23.45;;
58621;SDS011;44389;51.578;5.456;2022-12-08T07:46:21;48.28;;;23.65;;
58621;SDS011;44389;51.578;5.456;2022-12-08T07:48:48;48.60;;;25.10;;
58621;SDS011;44389;51.578;5.456;2022-12-08T07:51:14;44.13;;;25.40;;
58621;SDS011;44389;51.578;5.456;2022-12-08T07:53:41;48.63;;;26.27;;
58621;SDS011;44389;51.578;5.456;2022-12-08T07:58:34;50.38;;;28.15;;
58621;SDS011;44389;51.578;5.456;2022-12-08T08:00:59;49.53;;;28.33;;
58621;SDS011;44389;51.578;5.456;2022-12-08T08:03:24;54.65;;;30.35;;
58621;SDS011;44389;51.578;5.456;2022-12-08T08:05:50;49.08;;;30.17;;
58621;SDS011;44389;51.578;5.456;2022-12-08T08:08:15;51.90;;;30.73;;
58621;SDS011;44389;51.578;5.456;2022-12-08T08:10:41;57.85;;;31.63;;
58621;SDS011;44389;51.578;5.456;2022-12-08T08:13:07;48.08;;;27.88;;
58621;SDS011;44389;51.578;5.456;2022-12-08T08:15:32;46.55;;;25.17;;
58621;SDS011;44389;51.578;5.456;2022-12-08T08:17:57;42.22;;;22.77;;
58621;SDS011;44389;51.578;5.456;2022-12-08T08:20:23;37.92;;;21.10;;
58621;SDS011;44389;51.578;5.456;2022-12-08T08:22:49;35.63;;;20.10;;
58621;SDS011;44389;51.578;5.456;2022-12-08T08:25:15;37.08;;;22.13;;
58621;SDS011;44389;51.578;5.456;2022-12-08T08:27:41;31.10;;;18.45;;
58621;SDS011;44389;51.578;5.456;2022-12-08T08:30:08;33.20;;;18.48;;
58621;SDS011;44389;51.578;5.456;2022-12-08T08:32:34;33.60;;;17.70;;
58621;SDS011;44389;51.578;5.456;2022-12-08T08:35:00;32.00;;;17.92;;
58621;SDS011;44389;51.578;5.456;2022-12-08T08:37:26;33.15;;;18.45;;
58621;SDS011;44389;51.578;5.456;2022-12-08T08:39:51;29.20;;;18.25;;
58621;SDS011;44389;51.578;5.456;2022-12-08T08:42:16;30.83;;;18.48;;
58621;SDS011;44389;51.578;5.456;2022-12-08T08:44:42;31.13;;;18.13;;
58621;SDS011;44389;51.578;5.456;2022-12-08T08:47:07;33.13;;;18.30;;
58621;SDS011;44389;51.578;5.456;2022-12-08T08:49:32;28.73;;;16.08;;
58621;SDS011;44389;51.578;5.456;2022-12-08T08:51:58;23.35;;;14.95;;
58621;SDS011;44389;51.578;5.456;2022-12-08T08:54:23;37.28;;;18.80;;
58621;SDS011;44389;51.578;5.456;2022-12-08T08:56:48;30.45;;;16.88;;
58621;SDS011;44389;51.578;5.456;2022-12-08T08:59:14;28.55;;;16.88;;
58621;SDS011;44389;51.578;5.456;2022-12-08T09:01:39;28.58;;;16.60;;
58621;SDS011;44389;51.578;5.456;2022-12-08T09:04:04;30.75;;;15.30;;
58621;SDS011;44389;51.578;5.456;2022-12-08T09:06:30;27.20;;;15.38;;
58621;SDS011;44389;51.578;5.456;2022-12-08T09:08:55;24.13;;;14.68;;
58621;SDS011;44389;51.578;5.456;2022-12-08T09:11:20;27.77;;;15.63;;
58621;SDS011;44389;51.578;5.456;2022-12-08T09:13:50;28.85;;;14.75;;
58621;SDS011;44389;51.578;5.456;2022-12-08T09:16:16;30.17;;;15.70;;
58621;SDS011;44389;51.578;5.456;2022-12-08T09:18:41;31.70;;;16.00;;
58621;SDS011;44389;51.578;5.456;2022-12-08T09:21:08;26.83;;;14.88;;
58621;SDS011;44389;51.578;5.456;2022-12-08T09:23:39;27.33;;;14.75;;
58621;SDS011;44389;51.578;5.456;2022-12-08T09:26:04;23.48;;;15.30;;
58621;SDS011;44389;51.578;5.456;2022-12-08T09:28:30;24.95;;;14.05;;
58621;SDS011;44389;51.578;5.456;2022-12-08T09:30:56;24.58;;;14.60;;
58621;SDS011;44389;51.578;5.456;2022-12-08T09:33:22;22.55;;;13.70;;
58621;SDS011;44389;51.578;5.456;2022-12-08T09:35:47;31.65;;;15.50;;
58621;SDS011;44389;51.578;5.456;2022-12-08T09:38:12;26.20;;;15.65;;
58621;SDS011;44389;51.578;5.456;2022-12-08T09:40:40;29.65;;;18.08;;
58621;SDS011;44389;51.578;5.456;2022-12-08T09:43:22;30.10;;;15.65;;
58621;SDS011;44389;51.578;5.456;2022-12-08T09:45:49;28.50;;;15.17;;
58621;SDS011;44389;51.578;5.456;2022-12-08T09:48:18;25.52;;;15.43;;
58621;SDS011;44389;51.578;5.456;2022-12-08T09:50:52;29.40;;;15.70;;
58621;SDS011;44389;51.578;5.456;2022-12-08T09:56:13;26.73;;;15.75;;
58621;SDS011;44389;51.578;5.456;2022-12-08T10:01:17;28.60;;;15.35;;
58621;SDS011;44389;51.578;5.456;2022-12-08T10:03:45;30.45;;;14.60;;
58621;SDS011;44389;51.578;5.456;2022-12-08T10:09:11;31.27;;;13.95;;
58621;SDS011;44389;51.578;5.456;2022-12-08T10:14:42;28.67;;;14.05;;
58621;SDS011;44389;51.578;5.456;2022-12-08T10:17:12;38.00;;;16.17;;
58621;SDS011;44389;51.578;5.456;2022-12-08T10:19:42;32.35;;;16.25;;
58621;SDS011;44389;51.578;5.456;2022-12-08T10:22:14;35.65;;;18.75;;
58621;SDS011;44389;51.578;5.456;2022-12-08T10:24:49;35.08;;;17.70;;
58621;SDS011;44389;51.578;5.456;2022-12-08T10:27:19;35.50;;;17.95;;
58621;SDS011;44389;51.578;5.456;2022-12-08T10:29:45;42.35;;;21.40;;
58621;SDS011;44389;51.578;5.456;2022-12-08T10:32:17;36.08;;;20.42;;
58621;SDS011;44389;51.578;5.456;2022-12-08T10:37:31;53.60;;;26.52;;
58621;SDS011;44389;51.578;5.456;2022-12-08T10:40:00;47.75;;;26.55;;
58621;SDS011;44389;51.578;5.456;2022-12-08T10:42:40;57.25;;;29.70;;
58621;SDS011;44389;51.578;5.456;2022-12-08T10:47:42;60.85;;;34.72;;
58621;SDS011;44389;51.578;5.456;2022-12-08T10:50:35;77.50;;;36.78;;
58621;SDS011;44389;51.578;5.456;2022-12-08T10:55:41;92.25;;;48.55;;
58621;SDS011;44389;51.578;5.456;2022-12-08T11:01:11;124.47;;;60.92;;
58621;SDS011;44389;51.578;5.456;2022-12-08T11:03:51;146.57;;;71.57;;
58621;SDS011;44389;51.578;5.456;2022-12-08T11:06:20;154.13;;;78.28;;
58621;SDS011;44389;51.578;5.456;2022-12-08T11:08:55;131.02;;;65.28;;
58621;SDS011;44389;51.578;5.456;2022-12-08T11:11:35;124.70;;;61.45;;
58621;SDS011;44389;51.578;5.456;2022-12-08T11:14:26;137.15;;;64.82;;
58621;SDS011;44389;51.578;5.456;2022-12-08T11:17:06;143.52;;;73.95;;
58621;SDS011;44389;51.578;5.456;2022-12-08T11:19:37;148.57;;;71.60;;
58621;SDS011;44389;51.578;5.456;2022-12-08T11:25:01;105.55;;;53.88;;
58621;SDS011;44389;51.578;5.456;2022-12-08T11:27:37;122.80;;;60.10;;
58621;SDS011;44389;51.578;5.456;2022-12-08T11:30:24;132.73;;;67.00;;
58621;SDS011;44389;51.578;5.456;2022-12-08T11:32:54;134.82;;;64.25;;
58621;SDS011;44389;51.578;5.456;2022-12-08T11:35:26;168.05;;;84.90;;
58621;SDS011;44389;51.578;5.456;2022-12-08T11:37:56;131.90;;;66.10;;
58621;SDS011;44389;51.578;5.456;2022-12-08T11:40:39;143.82;;;72.93;;
58621;SDS011;44389;51.578;5.456;2022-12-08T11:49:05;167.77;;;91.30;;
58621;SDS011;44389;51.578;5.456;2022-12-08T11:56:53;94.30;;;53.95;;
58621;SDS011;44389;51.578;5.456;2022-12-08T11:59:37;95.68;;;55.72;;
58621;SDS011;44389;51.578;5.456;2022-12-08T12:02:19;93.13;;;51.75;;
58621;SDS011;44389;51.578;5.456;2022-12-08T12:12:54;88.82;;;48.55;;
58621;SDS011;44389;51.578;5.456;2022-12-08T12:21:12;86.57;;;48.47;;
58621;SDS011;44389;51.578;5.456;2022-12-08T12:23:48;78.53;;;45.35;;
58621;SDS011;44389;51.578;5.456;2022-12-08T12:26:28;89.13;;;50.38;;
58621;SDS011;44389;51.578;5.456;2022-12-08T12:28:59;95.68;;;52.58;;
58621;SDS011;44389;51.578;5.456;2022-12-08T12:31:28;86.88;;;46.70;;
58621;SDS011;44389;51.578;5.456;2022-12-08T12:34:07;62.88;;;38.53;;
58621;SDS011;44389;51.578;5.456;2022-12-08T12:36:49;60.10;;;41.08;;
58621;SDS011;44389;51.578;5.456;2022-12-08T12:39:30;38.33;;;25.20;;
58621;SDS011;44389;51.578;5.456;2022-12-08T12:41:58;45.88;;;27.88;;
58621;SDS011;44389;51.578;5.456;2022-12-08T12:46:57;46.55;;;29.08;;
58621;SDS011;44389;51.578;5.456;2022-12-08T13:02:23;20.20;;;13.30;;
58621;SDS011;44389;51.578;5.456;2022-12-08T13:07:24;25.63;;;15.80;;
58621;SDS011;44389;51.578;5.456;2022-12-08T13:10:03;23.98;;;15.68;;
58621;SDS011;44389;51.578;5.456;2022-12-08T13:18:23;30.85;;;16.58;;
58621;SDS011;44389;51.578;5.456;2022-12-08T13:21:13;23.13;;;14.57;;
58621;SDS011;44389;51.578;5.456;2022-12-08T13:23:45;23.13;;;14.05;;
58621;SDS011;44389;51.578;5.456;2022-12-08T13:31:35;24.02;;;16.52;;
58621;SDS011;44389;51.578;5.456;2022-12-08T13:39:58;30.30;;;22.10;;
58621;SDS011;44389;51.578;5.456;2022-12-08T13:42:42;36.75;;;24.45;;
58621;SDS011;44389;51.578;5.456;2022-12-08T13:47:58;37.45;;;26.25;;
58621;SDS011;44389;51.578;5.456;2022-12-08T13:53:27;38.22;;;24.80;;
58621;SDS011;44389;51.578;5.456;2022-12-08T13:55:57;40.65;;;26.35;;
58621;SDS011;44389;51.578;5.456;2022-12-08T13:58:27;39.47;;;26.40;;
58621;SDS011;44389;51.578;5.456;2022-12-08T14:01:04;39.85;;;26.42;;
58621;SDS011;44389;51.578;5.456;2022-12-08T14:03:45;42.10;;;27.73;;
58621;SDS011;44389;51.578;5.456;2022-12-08T14:06:17;43.55;;;27.77;;
58621;SDS011;44389;51.578;5.456;2022-12-08T14:09:00;61.70;;;42.65;;
58621;SDS011;44389;51.578;5.456;2022-12-08T14:11:29;60.05;;;41.78;;
58621;SDS011;44389;51.578;5.456;2022-12-08T14:13:59;34.50;;;24.05;;
58621;SDS011;44389;51.578;5.456;2022-12-08T14:16:49;52.30;;;33.25;;
58621;SDS011;44389;51.578;5.456;2022-12-08T14:19:19;40.55;;;28.42;;
58621;SDS011;44389;51.578;5.456;2022-12-08T14:21:57;53.65;;;33.75;;
58621;SDS011;44389;51.578;5.456;2022-12-08T14:24:25;52.67;;;33.40;;
58621;SDS011;44389;51.578;5.456;2022-12-08T14:26:53;48.72;;;29.77;;
58621;SDS011;44389;51.578;5.456;2022-12-08T14:32:00;33.10;;;22.80;;
58621;SDS011;44389;51.578;5.456;2022-12-08T14:34:25;32.50;;;21.08;;
58621;SDS011;44389;51.578;5.456;2022-12-08T14:36:51;46.97;;;27.70;;
58621;SDS011;44389;51.578;5.456;2022-12-08T14:39:17;33.72;;;21.92;;
58621;SDS011;44389;51.578;5.456;2022-12-08T14:41:57;26.20;;;17.65;;
58621;SDS011;44389;51.578;5.456;2022-12-08T14:44:24;25.50;;;16.60;;
58621;SDS011;44389;51.578;5.456;2022-12-08T14:47:02;23.02;;;15.65;;
58621;SDS011;44389;51.578;5.456;2022-12-08T14:49:37;26.70;;;18.48;;
58621;SDS011;44389;51.578;5.456;2022-12-08T14:52:10;24.95;;;16.95;;
58621;SDS011;44389;51.578;5.456;2022-12-08T14:54:36;28.73;;;18.67;;
58621;SDS011;44389;51.578;5.456;2022-12-08T14:57:04;24.55;;;18.15;;
58621;SDS011;44389;51.578;5.456;2022-12-08T15:02:11;26.55;;;19.40;;
58621;SDS011;44389;51.578;5.456;2022-12-08T15:04:41;26.65;;;17.25;;
58621;SDS011;44389;51.578;5.456;2022-12-08T15:07:13;25.88;;;19.50;;
58621;SDS011;44389;51.578;5.456;2022-12-08T15:14:37;31.05;;;20.50;;
58621;SDS011;44389;51.578;5.456;2022-12-08T15:19:56;32.03;;;20.70;;
58621;SDS011;44389;51.578;5.456;2022-12-08T15:22:22;30.77;;;19.77;;
58621;SDS011;44389;51.578;5.456;2022-12-08T15:24:48;35.33;;;20.92;;
58621;SDS011;44389;51.578;5.456;2022-12-08T15:27:15;30.48;;;19.50;;
58621;SDS011;44389;51.578;5.456;2022-12-08T15:29:43;30.08;;;18.58;;
58621;SDS011;44389;51.578;5.456;2022-12-08T15:32:08;31.30;;;18.63;;
58621;SDS011;44389;51.578;5.456;2022-12-08T15:34:35;35.63;;;19.10;;
58621;SDS011;44389;51.578;5.456;2022-12-08T15:37:01;37.70;;;22.20;;
58621;SDS011;44389;51.578;5.456;2022-12-08T15:39:34;32.83;;;20.77;;
58621;SDS011;44389;51.578;5.456;2022-12-08T15:42:01;41.50;;;25.17;;
58621;SDS011;44389;51.578;5.456;2022-12-08T15:44:28;51.97;;;32.60;;
58621;SDS011;44389;51.578;5.456;2022-12-08T15:46:56;101.38;;;56.38;;
58621;SDS011;44389;51.578;5.456;2022-12-08T15:49:23;65.22;;;35.75;;
58621;SDS011;44389;51.578;5.456;2022-12-08T15:51:49;65.68;;;38.92;;
58621;SDS011;44389;51.578;5.456;2022-12-08T15:54:15;44.58;;;26.55;;
58621;SDS011;44389;51.578;5.456;2022-12-08T15:56:54;36.13;;;22.67;;
58621;SDS011;44389;51.578;5.456;2022-12-08T15:59:22;49.42;;;31.83;;
58621;SDS011;44389;51.578;5.456;2022-12-08T16:01:49;54.60;;;33.35;;
58621;SDS011;44389;51.578;5.456;2022-12-08T16:04:19;70.22;;;42.63;;
58621;SDS011;44389;51.578;5.456;2022-12-08T16:06:46;51.83;;;32.58;;
58621;SDS011;44389;51.578;5.456;2022-12-08T16:11:47;49.92;;;30.13;;
58621;SDS011;44389;51.578;5.456;2022-12-08T16:14:31;45.22;;;30.65;;
58621;SDS011;44389;51.578;5.456;2022-12-08T16:16:57;52.58;;;31.17;;
58621;SDS011;44389;51.578;5.456;2022-12-08T16:19:23;60.33;;;32.72;;
58621;SDS011;44389;51.578;5.456;2022-12-08T16:21:48;63.13;;;38.58;;
58621;SDS011;44389;51.578;5.456;2022-12-08T16:24:13;90.57;;;44.40;;
58621;SDS011;44389;51.578;5.456;2022-12-08T16:26:38;67.88;;;36.38;;
58621;SDS011;44389;51.578;5.456;2022-12-08T16:29:04;49.67;;;28.00;;
58621;SDS011;44389;51.578;5.456;2022-12-08T16:31:29;48.38;;;27.52;;
58621;SDS011;44389;51.578;5.456;2022-12-08T16:33:55;49.28;;;27.10;;
58621;SDS011;44389;51.578;5.456;2022-12-08T16:36:20;47.92;;;27.83;;
58621;SDS011;44389;51.578;5.456;2022-12-08T16:38:45;51.70;;;29.38;;
58621;SDS011;44389;51.578;5.456;2022-12-08T16:41:12;47.35;;;28.33;;
58621;SDS011;44389;51.578;5.456;2022-12-08T16:43:59;52.83;;;29.65;;
58621;SDS011;44389;51.578;5.456;2022-12-08T16:46:26;49.13;;;30.02;;